Time;durP1;ratioP1;P1;durP2;ratioP2;P2;SDS_P1;SDS_P2;PMS_P1;PMS_P2;Temp;Humidity;BMP_temperature;BMP_pressure;BME280_temperature;BME280_humidity;BME280_pressure;Samples;Min_cycle;Max_cycle;Signal;HPM_P1;HPM_P2
2023/05/30 04:01:20;;;;;;;2.05;1.85;;;10.30;99.90;;;;;;5534440;23;20324;-74
2023/05/30 04:03:47;;;;;;;2.00;1.75;;;10.30;99.90;;;;;;4949995;28;20622;-74
2023/05/30 04:06:14;;;;;;;5.55;2.03;;;10.40;99.90;;;;;;4949032;28;20391;-74
2023/05/30 04:08:41;;;;;;;4.90;2.35;;;10.50;99.90;;;;;;4954390;28;20296;-74
2023/05/30 04:11:08;;;;;;;3.90;1.35;;;10.50;99.90;;;;;;4951732;28;20635;-74
2023/05/30 04:13:35;;;;;;;1.50;1.40;;;10.50;99.90;;;;;;4950996;28;20205;-74
2023/05/30 04:16:02;;;;;;;1.65;0.82;;;10.60;99.90;;;;;;4945113;29;20296;-74
2023/05/30 04:18:30;;;;;;;1.20;1.08;;;10.60;99.90;;;;;;4950945;28;20308;-74
2023/05/30 04:20:57;;;;;;;1.15;1.02;;;10.70;99.90;;;;;;4949681;29;20229;-74
2023/05/30 04:23:24;;;;;;;1.35;1.25;;;11.00;99.90;;;;;;4946964;28;20257;-74
2023/05/30 04:25:51;;;;;;;3.45;1.73;;;11.60;99.90;;;;;;4951618;28;20229;-71
2023/05/30 04:28:19;;;;;;;1.70;1.60;;;12.20;99.90;;;;;;4950687;29;20201;-73
2023/05/30 04:30:48;;;;;;;1.10;1.10;;;12.70;99.90;;;;;;4950959;28;20495;-72
2023/05/30 04:33:15;;;;;;;3.23;1.50;;;13.10;99.90;;;;;;4950563;28;20480;-72
2023/05/30 04:35:43;;;;;;;1.40;1.30;;;13.70;99.90;;;;;;4944199;28;20479;-73
2023/05/30 04:38:15;;;;;;;0.80;0.80;;;14.30;99.90;;;;;;4952047;28;21011;-73
2023/05/30 04:40:42;;;;;;;0.80;0.80;;;14.80;99.90;;;;;;4935354;29;20496;-72
2023/05/30 04:43:09;;;;;;;0.70;0.70;;;15.20;99.90;;;;;;4944071;29;20545;-73
2023/05/30 04:45:36;;;;;;;1.40;0.73;;;15.60;99.90;;;;;;4949931;29;20957;-73
2023/05/30 04:48:04;;;;;;;1.60;1.10;;;15.90;99.90;;;;;;4947174;29;20827;-73
2023/05/30 04:50:31;;;;;;;3.00;1.03;;;16.20;99.90;;;;;;4949582;29;20492;-73
2023/05/30 04:52:59;;;;;;;2.20;1.03;;;16.10;99.90;;;;;;4951377;28;20467;-72
2023/05/30 04:55:26;;;;;;;1.60;1.17;;;16.20;99.90;;;;;;4949840;29;20488;-73
2023/05/30 04:57:52;;;;;;;3.50;0.77;;;16.30;99.90;;;;;;4940045;28;20466;-73
2023/05/30 05:00:21;;;;;;;1.20;1.00;;;16.40;99.90;;;;;;4947794;29;20469;-73
2023/05/30 05:02:48;;;;;;;1.33;1.23;;;16.60;99.90;;;;;;4942383;28;20477;-73
2023/05/30 05:05:15;;;;;;;1.70;1.60;;;16.90;99.90;;;;;;4940303;29;21020;-73
2023/05/30 05:07:41;;;;;;;1.20;1.13;;;17.00;99.90;;;;;;4951707;28;20476;-73
2023/05/30 05:10:10;;;;;;;1.90;0.90;;;17.10;99.90;;;;;;4950587;28;20843;-73
2023/05/30 05:12:36;;;;;;;1.10;1.10;;;17.00;99.90;;;;;;4954577;29;20468;-74
2023/05/30 05:15:03;;;;;;;2.13;2.03;;;17.00;99.90;;;;;;4949910;29;20474;-73
2023/05/30 05:17:30;;;;;;;1.63;1.33;;;17.20;99.90;;;;;;4953977;28;20472;-72
2023/05/30 05:19:57;;;;;;;1.07;0.90;;;17.20;99.90;;;;;;4955431;29;20460;-73
2023/05/30 05:22:23;;;;;;;1.60;1.50;;;17.30;99.90;;;;;;4952737;29;20496;-74
2023/05/30 05:24:50;;;;;;;4.17;1.20;;;17.30;99.90;;;;;;4951762;28;20893;-74
2023/05/30 05:27:21;;;;;;;2.23;1.03;;;17.40;99.90;;;;;;4952812;28;20493;-74
2023/05/30 05:29:48;;;;;;;0.90;0.90;;;17.60;99.90;;;;;;4955123;28;20459;-73
2023/05/30 05:32:15;;;;;;;1.20;1.20;;;17.50;99.90;;;;;;4954561;28;20554;-73
2023/05/30 05:34:42;;;;;;;2.90;1.23;;;17.70;99.90;;;;;;4954837;29;20492;-74
2023/05/30 05:37:09;;;;;;;2.57;1.00;;;17.90;99.90;;;;;;4953860;29;20507;-73
2023/05/30 05:39:36;;;;;;;1.53;1.43;;;18.00;99.90;;;;;;4954848;28;20464;-72
2023/05/30 05:42:03;;;;;;;0.90;0.90;;;18.00;99.90;;;;;;4953486;29;20591;-73
2023/05/30 05:44:31;;;;;;;1.33;1.33;;;17.90;99.90;;;;;;4949264;28;20476;-72
2023/05/30 05:46:58;;;;;;;0.87;0.87;;;17.80;99.90;;;;;;4953890;29;20490;-74
2023/05/30 05:49:24;;;;;;;0.83;0.83;;;17.30;99.90;;;;;;4953657;29;20518;-72
2023/05/30 05:51:52;;;;;;;1.73;1.47;;;16.60;99.90;;;;;;4954360;28;20481;-72
2023/05/30 05:54:18;;;;;;;5.30;1.27;;;16.10;99.90;;;;;;4951006;29;20473;-72
2023/05/30 05:56:45;;;;;;;2.30;1.07;;;15.20;99.90;;;;;;4953917;28;20917;-73
2023/05/30 05:59:12;;;;;;;2.40;1.93;;;15.00;99.90;;;;;;4952800;29;20900;-72
2023/05/30 06:01:42;;;;;;;1.00;0.83;;;15.20;99.90;;;;;;4945285;29;20871;-72
2023/05/30 06:04:10;;;;;;;2.40;2.13;;;14.90;99.90;;;;;;4954199;28;20460;-72
2023/05/30 06:06:37;;;;;;;5.37;0.97;;;15.00;99.90;;;;;;4952358;28;20571;-71
2023/05/30 06:09:04;;;;;;;3.07;1.73;;;15.10;99.90;;;;;;4948580;29;20469;-74
2023/05/30 06:11:31;;;;;;;1.50;1.40;;;15.10;99.90;;;;;;4950403;29;20501;-72
2023/05/30 06:13:58;;;;;;;1.20;0.90;;;15.10;99.90;;;;;;4952955;28;20473;-73
2023/05/30 06:16:24;;;;;;;5.60;1.87;;;15.20;99.90;;;;;;4953817;28;20461;-73
2023/05/30 06:18:52;;;;;;;1.27;0.90;;;14.90;99.90;;;;;;4953498;28;20524;-74
2023/05/30 06:21:19;;;;;;;1.27;0.80;;;15.00;99.90;;;;;;4951645;29;20484;-73
2023/05/30 06:23:45;;;;;;;0.93;0.60;;;15.10;99.90;;;;;;4945660;28;20477;-73
2023/05/30 06:26:12;;;;;;;1.93;1.00;;;15.30;99.90;;;;;;4944394;28;20493;-73
2023/05/30 06:28:39;;;;;;;1.13;1.13;;;15.30;99.90;;;;;;4945732;29;20489;-73
2023/05/30 06:31:05;;;;;;;0.93;0.90;;;15.20;99.90;;;;;;4951188;29;20495;-73
2023/05/30 06:33:32;;;;;;;4.13;1.97;;;15.30;99.90;;;;;;4952511;29;20948;-73
2023/05/30 06:36:00;;;;;;;1.27;1.27;;;15.20;99.90;;;;;;4943926;29;20479;-73
2023/05/30 06:38:27;;;;;;;10.13;1.93;;;14.90;99.90;;;;;;4953147;29;20555;-73
2023/05/30 06:40:54;;;;;;;1.93;1.37;;;14.90;99.90;;;;;;4951834;29;20525;-74
2023/05/30 06:43:20;;;;;;;1.80;1.40;;;14.90;99.90;;;;;;4951874;28;20981;-73
2023/05/30 06:45:47;;;;;;;1.20;1.20;;;14.50;99.90;;;;;;4950705;29;20472;-73
2023/05/30 06:48:14;;;;;;;5.47;1.40;;;14.30;99.90;;;;;;4953603;29;20551;-74
2023/05/30 06:50:40;;;;;;;2.53;1.47;;;14.40;99.90;;;;;;4946041;29;20843;-73
2023/05/30 06:53:08;;;;;;;5.40;1.50;;;14.70;99.90;;;;;;4948874;29;20509;-74
2023/05/30 06:55:35;;;;;;;4.47;2.30;;;14.80;99.90;;;;;;4948337;28;20477;-74
2023/05/30 06:58:02;;;;;;;2.40;2.10;;;15.00;99.90;;;;;;4952346;28;20469;-74
2023/05/30 07:00:28;;;;;;;0.77;0.70;;;15.10;99.90;;;;;;4951595;28;20474;-74
2023/05/30 07:02:55;;;;;;;1.93;1.83;;;15.10;99.90;;;;;;4952288;29;20468;-74
2023/05/30 07:05:21;;;;;;;7.43;2.17;;;15.30;99.90;;;;;;4953444;28;20962;-73
2023/05/30 07:07:48;;;;;;;1.97;1.87;;;15.50;99.90;;;;;;4952649;28;20539;-73
2023/05/30 07:10:16;;;;;;;2.43;2.23;;;15.40;99.90;;;;;;4948143;29;20477;-74
2023/05/30 07:12:43;;;;;;;2.73;2.40;;;15.50;99.90;;;;;;4951848;28;20469;-73
2023/05/30 07:15:10;;;;;;;1.60;1.50;;;15.60;99.90;;;;;;4951355;29;20479;-75
2023/05/30 07:17:37;;;;;;;3.03;1.40;;;15.50;99.90;;;;;;4945467;29;20537;-75
2023/05/30 07:20:06;;;;;;;3.70;1.70;;;15.40;99.90;;;;;;4952200;29;20473;-75
2023/05/30 07:22:32;;;;;;;6.13;1.27;;;15.50;99.90;;;;;;4953015;28;20539;-72
2023/05/30 07:24:59;;;;;;;5.10;1.50;;;15.60;99.90;;;;;;4947879;29;20532;-72
2023/05/30 07:27:27;;;;;;;13.43;2.30;;;15.70;99.90;;;;;;4949666;28;20524;-72
2023/05/30 07:29:54;;;;;;;4.07;1.43;;;15.60;99.90;;;;;;4953464;29;20532;-73
2023/05/30 07:32:21;;;;;;;17.93;2.30;;;15.60;99.90;;;;;;4953386;28;20615;-73
2023/05/30 07:34:48;;;;;;;4.90;1.47;;;15.70;99.90;;;;;;4945849;29;20496;-73
2023/05/30 07:37:15;;;;;;;3.60;1.27;;;15.70;99.90;;;;;;4953065;28;20469;-73
2023/05/30 07:39:43;;;;;;;8.70;2.23;;;15.80;99.90;;;;;;4946592;29;20817;-73
2023/05/30 07:42:10;;;;;;;1.47;1.40;;;16.10;99.90;;;;;;4951235;28;20544;-73
2023/05/30 07:44:38;;;;;;;1.27;1.27;;;16.20;99.90;;;;;;4953450;29;20965;-73
2023/05/30 07:47:05;;;;;;;1.83;1.43;;;16.50;99.90;;;;;;4953230;29;20484;-73
2023/05/30 07:49:32;;;;;;;1.13;1.13;;;16.40;99.90;;;;;;4952595;28;20460;-72
2023/05/30 07:51:59;;;;;;;2.37;1.57;;;16.40;99.90;;;;;;4942437;29;20555;-73
2023/05/30 07:54:25;;;;;;;2.97;1.43;;;16.40;99.90;;;;;;4950826;29;20473;-72
2023/05/30 07:56:52;;;;;;;3.93;1.50;;;16.90;99.90;;;;;;4945400;29;20461;-73
2023/05/30 07:59:19;;;;;;;4.10;1.33;;;17.00;99.90;;;;;;4949064;29;20460;-72
2023/05/30 08:01:47;;;;;;;1.63;1.53;;;16.60;99.90;;;;;;4944670;28;20507;-74
2023/05/30 08:04:13;;;;;;;1.90;1.10;;;16.70;99.90;;;;;;4951467;29;20472;-74
2023/05/30 08:06:40;;;;;;;1.37;1.23;;;17.20;99.90;;;;;;4941985;28;20569;-72
2023/05/30 08:09:08;;;;;;;1.00;0.87;;;17.90;99.90;;;;;;4948235;29;20450;-73
2023/05/30 08:11:34;;;;;;;1.30;1.30;;;17.40;99.90;;;;;;4948819;28;20497;-72
2023/05/30 08:14:01;;;;;;;1.50;1.40;;;16.90;99.90;;;;;;4940326;28;20567;-72
2023/05/30 08:16:28;;;;;;;2.93;1.50;;;16.80;99.90;;;;;;4944381;28;20492;-72
2023/05/30 08:18:57;;;;;;;5.07;1.33;;;17.10;99.90;;;;;;4950888;28;20472;-73
2023/05/30 08:21:24;;;;;;;2.10;1.00;;;17.00;99.90;;;;;;4951437;29;20913;-72
2023/05/30 08:23:51;;;;;;;1.67;1.33;;;16.90;99.90;;;;;;4946256;28;20481;-72
2023/05/30 08:26:18;;;;;;;1.90;1.20;;;17.00;99.90;;;;;;4949959;28;20907;-72
2023/05/30 08:28:46;;;;;;;2.50;1.20;;;17.10;99.90;;;;;;4951212;28;20957;-72
2023/05/30 08:31:13;;;;;;;1.40;1.40;;;17.10;99.90;;;;;;4946057;28;21023;-72
2023/05/30 08:33:40;;;;;;;2.50;1.70;;;16.60;99.90;;;;;;4949442;29;20987;-74
2023/05/30 08:36:08;;;;;;;1.00;1.00;;;16.50;99.90;;;;;;4951532;29;20941;-73
2023/05/30 08:38:35;;;;;;;1.60;1.23;;;16.50;99.90;;;;;;4952185;28;20524;-74
2023/05/30 08:41:02;;;;;;;2.20;1.77;;;16.60;99.90;;;;;;4948140;28;20629;-73
2023/05/30 08:43:28;;;;;;;0.93;0.93;;;16.90;99.90;;;;;;4946908;29;20473;-73
2023/05/30 08:45:55;;;;;;;1.53;1.43;;;17.10;99.90;;;;;;4947419;28;20480;-73
2023/05/30 08:48:24;;;;;;;2.07;1.27;;;17.10;99.90;;;;;;4942687;29;20499;-74
2023/05/30 08:50:52;;;;;;;1.83;1.20;;;17.10;99.90;;;;;;4951840;28;20485;-73
2023/05/30 08:53:26;;;;;;;1.43;1.30;;;17.30;99.90;;;;;;4949626;28;20468;-73
2023/05/30 08:56:08;;;;;;;2.13;1.37;;;17.80;99.90;;;;;;4942594;29;20473;-74
2023/05/30 08:58:38;;;;;;;1.20;1.10;;;17.60;99.90;;;;;;4950361;29;20472;-73
2023/05/30 09:01:05;;;;;;;2.80;1.37;;;17.60;99.90;;;;;;4951895;29;20484;-73
2023/05/30 09:03:34;;;;;;;1.80;1.13;;;17.40;99.90;;;;;;4943713;28;20505;-73
2023/05/30 09:06:01;;;;;;;1.27;1.13;;;17.40;99.90;;;;;;4952360;28;20472;-73
2023/05/30 09:08:31;;;;;;;3.30;1.37;;;17.30;99.90;;;;;;4952049;28;20488;-73
2023/05/30 09:10:59;;;;;;;4.37;1.27;;;17.20;99.90;;;;;;4951534;28;20523;-73
2023/05/30 09:13:26;;;;;;;1.50;1.40;;;17.20;99.90;;;;;;4951182;29;20559;-73
2023/05/30 09:15:53;;;;;;;3.60;1.67;;;17.30;99.90;;;;;;4950250;29;20484;-72
2023/05/30 09:18:19;;;;;;;2.67;1.40;;;17.30;99.90;;;;;;4948260;28;20465;-72
2023/05/30 09:20:46;;;;;;;1.50;1.50;;;17.30;99.90;;;;;;4951463;28;20635;-72
2023/05/30 09:23:13;;;;;;;1.70;1.70;;;17.30;99.90;;;;;;4950360;28;21188;-74
2023/05/30 09:25:45;;;;;;;1.53;1.43;;;17.30;99.90;;;;;;4949880;28;20468;-72
2023/05/30 09:28:12;;;;;;;1.30;1.30;;;17.40;99.90;;;;;;4936170;28;20513;-72
2023/05/30 09:30:54;;;;;;;2.37;1.97;;;17.40;99.90;;;;;;4945461;29;20492;-72
2023/05/30 09:33:21;;;;;;;2.20;1.57;;;17.50;99.90;;;;;;4943402;28;20469;-71
2023/05/30 09:35:52;;;;;;;2.33;1.47;;;17.70;99.90;;;;;;4945965;28;20816;-71
2023/05/30 09:38:22;;;;;;;1.07;1.07;;;17.80;99.90;;;;;;4947340;29;20471;-71
2023/05/30 09:40:56;;;;;;;1.23;1.10;;;17.70;99.90;;;;;;4951672;28;20915;-71
2023/05/30 09:43:34;;;;;;;2.10;1.67;;;17.90;99.90;;;;;;4942622;29;20461;-72
2023/05/30 09:46:02;;;;;;;1.20;1.20;;;18.00;99.90;;;;;;4951029;29;20555;-71
2023/05/30 09:48:28;;;;;;;9.77;2.70;;;17.80;99.90;;;;;;4944970;28;20560;-71
2023/05/30 09:50:59;;;;;;;0.93;0.93;;;17.90;99.90;;;;;;4943071;29;20509;-71
2023/05/30 09:53:29;;;;;;;2.47;1.50;;;18.00;99.90;;;;;;4945405;28;20944;-71
2023/05/30 09:55:57;;;;;;;1.63;1.57;;;18.20;99.90;;;;;;4951904;29;20500;-73
2023/05/30 09:58:25;;;;;;;2.40;1.53;;;18.30;99.90;;;;;;4949859;28;20916;-74
2023/05/30 10:00:52;;;;;;;1.23;1.23;;;18.40;99.90;;;;;;4950448;28;20496;-73
2023/05/30 10:03:20;;;;;;;1.67;1.57;;;18.30;99.90;;;;;;4953003;28;20548;-73
2023/05/30 10:05:47;;;;;;;1.33;1.33;;;18.20;99.90;;;;;;4953637;29;20476;-74
2023/05/30 10:08:14;;;;;;;3.53;1.37;;;18.40;99.90;;;;;;4950454;29;20481;-73
2023/05/30 10:10:41;;;;;;;1.13;0.80;;;18.40;99.90;;;;;;4945848;29;20493;-73
2023/05/30 10:13:10;;;;;;;1.10;1.00;;;18.40;99.90;;;;;;4953730;29;20495;-73
2023/05/30 10:15:36;;;;;;;1.33;1.23;;;18.30;99.90;;;;;;4953849;29;20492;-73
2023/05/30 10:18:08;;;;;;;1.23;1.23;;;18.20;99.90;;;;;;4954440;29;20472;-73
2023/05/30 10:20:37;;;;;;;2.17;1.90;;;18.30;99.90;;;;;;4951712;28;20485;-74
2023/05/30 10:23:07;;;;;;;3.10;1.70;;;18.40;99.90;;;;;;4949334;29;20576;-74
2023/05/30 10:25:35;;;;;;;1.40;1.30;;;18.50;99.90;;;;;;4952938;29;20567;-73
2023/05/30 10:28:04;;;;;;;1.13;1.13;;;18.30;99.90;;;;;;4941341;29;20603;-73
2023/05/30 10:30:33;;;;;;;1.00;1.00;;;18.20;99.90;;;;;;4951319;29;20489;-73
2023/05/30 10:33:04;;;;;;;1.07;1.03;;;18.30;99.90;;;;;;4952917;28;20496;-73
2023/05/30 10:35:32;;;;;;;1.97;1.87;;;18.20;99.90;;;;;;4953557;28;20587;-73
2023/05/30 10:38:00;;;;;;;3.70;1.60;;;18.20;99.90;;;;;;4944243;28;20473;-73
2023/05/30 10:40:46;;;;;;;1.23;1.23;;;18.40;99.90;;;;;;4951542;28;20836;-73
2023/05/30 10:43:23;;;;;;;3.20;1.50;;;18.50;99.90;;;;;;4950656;28;20580;-73
2023/05/30 10:46:04;;;;;;;3.30;1.53;;;18.60;99.90;;;;;;4949003;29;20965;-73
2023/05/30 10:48:43;;;;;;;1.50;1.10;;;17.90;99.90;;;;;;4953859;29;20480;-73
2023/05/30 10:51:11;;;;;;;7.33;1.87;;;17.60;99.90;;;;;;4951880;29;20492;-73
2023/05/30 10:53:41;;;;;;;0.93;0.93;;;17.60;99.90;;;;;;4944248;29;20548;-73
2023/05/30 10:56:31;;;;;;;1.17;1.17;;;17.80;99.90;;;;;;4949107;29;20473;-72
2023/05/30 10:58:58;;;;;;;1.40;1.30;;;18.10;99.90;;;;;;4944827;29;20661;-73
2023/05/30 11:01:29;;;;;;;1.87;1.77;;;18.30;99.90;;;;;;4950776;29;21011;-73
2023/05/30 11:04:01;;;;;;;1.50;1.50;;;18.60;99.90;;;;;;4950702;28;20481;-73
2023/05/30 11:06:31;;;;;;;4.93;1.50;;;18.60;99.90;;;;;;4951100;28;20548;-73
2023/05/30 11:09:07;;;;;;;1.60;1.50;;;18.40;99.90;;;;;;4946958;29;20555;-73
2023/05/30 11:11:35;;;;;;;1.80;1.70;;;18.30;99.90;;;;;;4951895;29;20492;-73
2023/05/30 11:14:05;;;;;;;3.30;1.63;;;18.40;99.90;;;;;;4947999;28;20511;-72
2023/05/30 11:16:33;;;;;;;1.60;1.43;;;18.40;99.90;;;;;;4951569;29;20503;-72
2023/05/30 11:19:11;;;;;;;2.40;2.27;;;18.50;99.90;;;;;;4948123;29;20472;-73
2023/05/30 11:22:01;;;;;;;1.07;1.07;;;18.50;99.90;;;;;;4950632;28;20488;-72
2023/05/30 11:24:28;;;;;;;2.10;1.93;;;18.60;99.90;;;;;;4947279;29;20476;-72
2023/05/30 11:27:00;;;;;;;1.80;1.73;;;18.70;99.90;;;;;;4946210;28;20477;-72
2023/05/30 11:29:31;;;;;;;2.50;2.23;;;18.70;99.90;;;;;;4941614;28;20828;-73
2023/05/30 11:32:00;;;;;;;1.37;1.37;;;18.50;99.90;;;;;;4943951;28;20580;-73
2023/05/30 11:34:26;;;;;;;1.33;1.23;;;18.50;99.90;;;;;;4944058;28;20492;-73
2023/05/30 11:36:53;;;;;;;1.40;1.40;;;18.10;99.90;;;;;;4951243;28;21071;-74
2023/05/30 11:39:20;;;;;;;2.00;1.70;;;18.20;99.90;;;;;;4949807;28;20969;-74
2023/05/30 11:41:48;;;;;;;1.73;1.33;;;18.30;99.90;;;;;;4947548;29;21071;-74
2023/05/30 11:44:15;;;;;;;2.17;2.07;;;18.40;99.90;;;;;;4948778;29;20564;-73
2023/05/30 11:46:42;;;;;;;1.37;1.37;;;18.50;99.90;;;;;;4948418;28;20484;-74
2023/05/30 11:49:10;;;;;;;2.20;1.20;;;18.60;99.90;;;;;;4950887;28;20492;-72
2023/05/30 11:51:39;;;;;;;2.40;1.37;;;18.90;99.90;;;;;;4950254;28;20493;-74
2023/05/30 11:54:09;;;;;;;1.60;1.60;;;18.80;99.90;;;;;;4946205;28;20814;-73
2023/05/30 11:56:37;;;;;;;1.70;1.70;;;18.80;99.90;;;;;;4951050;28;20507;-73
2023/05/30 11:59:04;;;;;;;1.37;1.37;;;18.80;99.90;;;;;;4946551;28;20523;-72
2023/05/30 12:01:30;;;;;;;3.37;1.80;;;18.90;99.90;;;;;;4949491;28;20510;-74
2023/05/30 12:03:57;;;;;;;2.23;1.80;;;18.90;99.90;;;;;;4945580;29;20496;-74
2023/05/30 12:06:26;;;;;;;1.20;1.20;;;19.00;99.90;;;;;;4951825;29;20497;-75
2023/05/30 12:08:53;;;;;;;2.40;2.23;;;19.00;99.90;;;;;;4951291;29;20499;-73
2023/05/30 12:11:20;;;;;;;1.70;1.60;;;19.10;99.90;;;;;;4951206;29;20492;-73
2023/05/30 12:13:46;;;;;;;1.00;1.00;;;19.20;99.90;;;;;;4950737;29;20473;-73
2023/05/30 12:16:14;;;;;;;1.30;1.20;;;19.40;99.90;;;;;;4951369;29;20495;-73
2023/05/30 12:18:41;;;;;;;1.13;1.13;;;19.50;99.90;;;;;;4951425;28;20468;-73
2023/05/30 12:21:12;;;;;;;1.37;1.37;;;19.70;99.90;;;;;;4947583;29;20578;-73
2023/05/30 12:23:42;;;;;;;4.87;2.40;;;19.70;99.90;;;;;;4945944;29;20472;-73
2023/05/30 12:26:16;;;;;;;1.63;1.20;;;19.70;99.90;;;;;;4951328;28;20584;-72
2023/05/30 12:28:45;;;;;;;1.40;1.40;;;19.80;99.90;;;;;;4946269;29;20520;-73
2023/05/30 12:31:21;;;;;;;1.37;1.23;;;19.60;99.90;;;;;;4946831;29;20856;-74
2023/05/30 12:33:48;;;;;;;4.03;1.23;;;19.30;99.90;;;;;;4949642;29;20527;-73
2023/05/30 12:36:15;;;;;;;1.03;0.93;;;19.10;99.90;;;;;;4951083;29;20465;-74
2023/05/30 12:38:43;;;;;;;2.90;2.70;;;19.30;99.90;;;;;;4949504;29;20949;-74
2023/05/30 12:41:10;;;;;;;3.70;1.80;;;19.10;99.90;;;;;;4950507;29;20503;-74
2023/05/30 12:43:38;;;;;;;1.33;1.33;;;19.00;99.90;;;;;;4950299;28;20543;-75
2023/05/30 12:46:08;;;;;;;1.30;1.30;;;18.70;99.90;;;;;;4951718;28;20465;-75
2023/05/30 12:48:35;;;;;;;1.30;1.23;;;18.70;99.90;;;;;;4951846;29;20491;-75
2023/05/30 12:51:01;;;;;;;1.63;1.53;;;18.70;99.90;;;;;;4941450;29;20490;-74
2023/05/30 12:53:28;;;;;;;1.60;1.50;;;18.50;99.90;;;;;;4949966;29;20473;-74
2023/05/30 12:55:56;;;;;;;1.03;1.03;;;18.40;99.90;;;;;;4951232;29;20468;-74
2023/05/30 12:58:23;;;;;;;2.40;1.70;;;18.30;99.90;;;;;;4950675;29;20795;-75
2023/05/30 13:00:49;;;;;;;3.30;1.50;;;18.30;99.90;;;;;;4951394;29;21020;-74
2023/05/30 13:03:17;;;;;;;1.30;1.20;;;18.40;99.90;;;;;;4950419;28;20822;-75
2023/05/30 13:05:47;;;;;;;2.03;2.03;;;18.50;99.90;;;;;;4944967;28;20563;-74
2023/05/30 13:08:13;;;;;;;1.57;1.57;;;18.60;99.90;;;;;;4943591;29;20528;-74
2023/05/30 13:10:40;;;;;;;1.77;1.67;;;18.60;99.90;;;;;;4948153;28;20575;-74
2023/05/30 13:13:08;;;;;;;1.50;1.30;;;18.60;99.90;;;;;;4944565;29;20473;-74
2023/05/30 13:15:35;;;;;;;2.33;2.13;;;18.40;99.90;;;;;;4949592;29;20543;-74
2023/05/30 13:18:01;;;;;;;1.20;1.20;;;18.30;99.90;;;;;;4948753;28;20563;-75
2023/05/30 13:20:28;;;;;;;3.07;1.40;;;18.30;99.90;;;;;;4948688;29;20841;-74
2023/05/30 13:22:55;;;;;;;1.20;1.10;;;18.20;99.90;;;;;;4942840;28;20540;-75
2023/05/30 13:25:21;;;;;;;1.23;1.20;;;18.50;99.90;;;;;;4949042;29;20869;-74
2023/05/30 13:27:50;;;;;;;2.90;2.53;;;18.50;99.90;;;;;;4949528;29;20473;-74
2023/05/30 13:30:18;;;;;;;1.60;1.50;;;18.30;99.90;;;;;;4960965;28;20461;-74
2023/05/30 13:32:46;;;;;;;2.67;1.97;;;18.20;99.90;;;;;;4948062;28;20476;-74
2023/05/30 13:35:12;;;;;;;4.73;1.80;;;18.40;99.90;;;;;;4954934;29;20556;-74
2023/05/30 13:37:40;;;;;;;2.77;1.33;;;18.50;99.90;;;;;;4966543;28;20528;-74
2023/05/30 13:40:09;;;;;;;1.07;1.07;;;18.70;99.90;;;;;;4968425;28;20468;-74
2023/05/30 13:42:37;;;;;;;1.50;1.50;;;19.10;99.90;;;;;;4966974;29;20497;-74
2023/05/30 13:45:04;;;;;;;2.60;2.40;;;19.10;99.90;;;;;;4953599;29;20483;-73
2023/05/30 13:47:32;;;;;;;2.40;2.30;;;18.80;99.90;;;;;;4949250;28;20520;-74
2023/05/30 13:49:59;;;;;;;2.60;1.30;;;18.60;99.90;;;;;;4972473;28;20487;-74
2023/05/30 13:52:26;;;;;;;2.10;2.00;;;18.50;99.90;;;;;;4960478;28;20496;-74
2023/05/30 13:54:52;;;;;;;1.43;1.43;;;18.70;99.90;;;;;;4954889;29;20527;-74
2023/05/30 13:57:19;;;;;;;1.00;1.00;;;18.90;99.90;;;;;;4951850;28;20587;-74
2023/05/30 13:59:46;;;;;;;2.43;2.23;;;19.10;99.90;;;;;;4950802;28;20499;-74
2023/05/30 14:02:12;;;;;;;3.60;2.20;;;19.40;99.90;;;;;;4946678;29;20564;-74
2023/05/30 14:04:40;;;;;;;0.97;0.97;;;19.70;99.90;;;;;;4951794;28;20473;-74
2023/05/30 14:07:07;;;;;;;1.43;1.43;;;19.80;99.90;;;;;;4952192;29;20472;-74
2023/05/30 14:09:33;;;;;;;1.37;1.37;;;19.80;99.90;;;;;;4954337;28;20496;-75
2023/05/30 14:12:00;;;;;;;1.23;1.03;;;19.50;99.90;;;;;;4951879;28;20612;-74
2023/05/30 14:14:28;;;;;;;1.43;1.43;;;19.20;99.90;;;;;;4953149;28;20559;-74
2023/05/30 14:16:55;;;;;;;1.03;1.03;;;19.20;99.90;;;;;;4949699;29;20590;-74
2023/05/30 14:19:28;;;;;;;1.00;1.00;;;19.10;99.90;;;;;;4953371;28;20472;-74
2023/05/30 14:21:56;;;;;;;0.77;0.77;;;19.20;99.90;;;;;;4954376;29;20879;-74
2023/05/30 14:24:23;;;;;;;2.17;1.10;;;19.40;99.90;;;;;;4950616;28;20484;-74
2023/05/30 14:26:50;;;;;;;3.80;1.80;;;19.60;99.90;;;;;;4959252;28;20514;-74
2023/05/30 14:29:16;;;;;;;1.83;1.73;;;19.70;99.90;;;;;;4959120;28;20492;-75
2023/05/30 14:31:43;;;;;;;1.33;1.13;;;19.60;99.90;;;;;;4956017;28;20485;-74
2023/05/30 14:34:10;;;;;;;1.73;1.63;;;19.50;99.90;;;;;;4945896;28;20472;-74
2023/05/30 14:36:37;;;;;;;1.20;1.20;;;19.50;99.90;;;;;;4954244;29;20487;-74
2023/05/30 14:39:05;;;;;;;1.73;1.23;;;19.30;99.90;;;;;;4957742;28;20465;-75
2023/05/30 14:41:31;;;;;;;3.40;1.40;;;19.40;99.90;;;;;;4957234;28;20524;-74
2023/05/30 14:43:58;;;;;;;1.10;1.10;;;19.30;99.90;;;;;;4960825;29;20469;-74
2023/05/30 14:46:25;;;;;;;1.00;1.00;;;19.40;99.90;;;;;;4961248;28;20476;-74
2023/05/30 14:48:51;;;;;;;1.80;1.00;;;19.40;99.90;;;;;;4951627;29;20511;-74
2023/05/30 14:51:18;;;;;;;2.03;0.93;;;19.40;99.90;;;;;;4949775;29;20485;-74
2023/05/30 14:53:45;;;;;;;0.93;0.93;;;19.30;99.90;;;;;;4962964;28;20535;-74
2023/05/30 14:56:13;;;;;;;1.40;1.30;;;19.10;99.90;;;;;;4963785;28;20457;-73
2023/05/30 14:58:39;;;;;;;1.60;0.93;;;18.80;99.90;;;;;;4966248;29;20467;-74
2023/05/30 15:01:06;;;;;;;1.20;1.20;;;18.70;99.90;;;;;;4958246;28;20557;-75
2023/05/30 15:03:33;;;;;;;1.77;1.67;;;18.90;99.90;;;;;;4960960;29;20504;-74
2023/05/30 15:05:59;;;;;;;4.43;1.20;;;19.20;99.90;;;;;;4964330;28;21165;-73
2023/05/30 15:08:26;;;;;;;3.60;1.57;;;19.60;99.90;;;;;;4954912;28;20525;-74
2023/05/30 15:10:53;;;;;;;1.87;1.87;;;19.90;99.90;;;;;;4956303;28;20651;-74
2023/05/30 15:13:21;;;;;;;1.47;1.47;;;20.10;99.90;;;;;;4944216;29;20466;-74
2023/05/30 15:15:48;;;;;;;8.07;1.67;;;20.20;99.90;;;;;;4952712;28;20464;-74
2023/05/30 15:18:14;;;;;;;12.30;1.83;;;20.20;99.90;;;;;;4949294;29;20467;-74
2023/05/30 15:20:41;;;;;;;4.60;1.70;;;20.30;99.90;;;;;;4954828;28;20484;-74
2023/05/30 15:23:07;;;;;;;0.87;0.87;;;20.10;99.90;;;;;;4944172;28;20491;-74
2023/05/30 15:25:34;;;;;;;2.20;1.80;;;19.80;99.90;;;;;;4946959;29;20897;-74
2023/05/30 15:28:01;;;;;;;2.53;1.50;;;19.60;99.90;;;;;;4946843;28;20474;-74
2023/05/30 15:30:29;;;;;;;1.33;1.33;;;19.50;99.90;;;;;;4949578;29;21013;-74
2023/05/30 15:32:56;;;;;;;1.20;1.20;;;19.70;99.90;;;;;;4953467;29;21062;-74
2023/05/30 15:35:23;;;;;;;1.37;1.30;;;19.80;99.90;;;;;;4953271;28;20472;-74
2023/05/30 15:37:49;;;;;;;4.73;2.00;;;19.80;99.90;;;;;;4953431;28;20465;-75
2023/05/30 15:40:16;;;;;;;1.23;1.23;;;19.90;99.90;;;;;;4952703;29;20640;-74
2023/05/30 15:42:43;;;;;;;1.50;1.40;;;20.00;99.90;;;;;;4945551;29;20481;-74
2023/05/30 15:45:10;;;;;;;2.03;1.50;;;20.00;99.90;;;;;;4952584;28;20461;-74
2023/05/30 15:47:38;;;;;;;1.13;1.13;;;20.00;99.90;;;;;;4950541;28;20511;-74
2023/05/30 15:50:06;;;;;;;1.40;1.40;;;20.00;99.90;;;;;;4953226;29;20529;-74
2023/05/30 15:52:33;;;;;;;1.33;1.33;;;20.20;99.90;;;;;;4945378;28;20512;-74
2023/05/30 15:55:00;;;;;;;1.00;1.00;;;20.20;99.90;;;;;;4952366;29;20461;-74
2023/05/30 15:57:26;;;;;;;1.73;1.63;;;20.20;99.90;;;;;;4951103;28;20469;-74
2023/05/30 15:59:53;;;;;;;1.67;1.57;;;19.90;99.90;;;;;;4949200;29;20515;-74
2023/05/30 16:02:20;;;;;;;1.53;1.53;;;20.10;99.90;;;;;;4949855;29;20504;-74
2023/05/30 16:04:48;;;;;;;1.10;1.10;;;20.20;99.90;;;;;;4953508;28;20532;-71
2023/05/30 16:07:15;;;;;;;2.70;1.10;;;20.30;99.90;;;;;;4944770;29;20472;-72
2023/05/30 16:09:42;;;;;;;1.10;1.10;;;20.20;99.90;;;;;;4944731;29;20488;-73
2023/05/30 16:12:09;;;;;;;1.80;1.60;;;20.10;99.90;;;;;;4945360;29;20530;-73
2023/05/30 16:14:35;;;;;;;1.23;1.23;;;20.10;99.90;;;;;;4939843;29;22279;-72
2023/05/30 16:17:02;;;;;;;1.97;1.83;;;19.90;99.90;;;;;;4941183;28;20473;-73
2023/05/30 16:19:29;;;;;;;2.30;2.20;;;19.90;99.90;;;;;;4948331;28;20473;-73
2023/05/30 16:21:58;;;;;;;1.80;1.80;;;19.90;99.90;;;;;;4943209;28;20492;-73
2023/05/30 16:24:24;;;;;;;2.00;1.30;;;19.80;99.90;;;;;;4946407;28;20491;-73
2023/05/30 16:26:51;;;;;;;1.17;1.17;;;19.80;99.90;;;;;;4946214;28;20469;-73
2023/05/30 16:29:18;;;;;;;7.67;1.83;;;20.00;99.90;;;;;;4947857;29;20516;-73
2023/05/30 16:31:44;;;;;;;1.50;1.13;;;19.90;99.90;;;;;;4949514;29;20495;-73
2023/05/30 16:34:11;;;;;;;1.53;1.53;;;19.90;99.90;;;;;;4950098;29;20519;-74
2023/05/30 16:36:38;;;;;;;0.80;0.80;;;20.00;99.90;;;;;;4951261;29;20547;-74
2023/05/30 16:39:08;;;;;;;1.90;1.77;;;20.00;99.90;;;;;;4951817;29;20477;-73
2023/05/30 16:41:35;;;;;;;2.50;1.60;;;20.00;99.90;;;;;;4951317;28;20498;-73
2023/05/30 16:44:02;;;;;;;1.17;1.17;;;20.10;99.90;;;;;;4946551;29;20477;-72
2023/05/30 16:46:29;;;;;;;1.33;1.30;;;20.30;99.90;;;;;;4942009;29;20476;-73
2023/05/30 16:48:55;;;;;;;0.80;0.80;;;20.30;99.90;;;;;;4950279;28;20537;-73